Time;durP1;ratioP1;P1;durP2;ratioP2;P2;SDS_P1;SDS_P2;PMS_P1;PMS_P2;Temp;Humidity;BMP_temperature;BMP_pressure;BME280_temperature;BME280_humidity;BME280_pressure;Samples;Min_cycle;Max_cycle;Signal;HPM_P1;HPM_P2
2019/09/12 00:00:06;;;;;;;8;7.3;;;;;;;14.76;100;96335.06;;;;
2019/09/12 00:01:09;;;;;;;7.95;7.2;;;;;;;14.77;100;96333.47;;;;
2019/09/12 00:02:11;;;;;;;7.95;7.2;;;;;;;14.77;100;96333.47;;;;
2019/09/12 00:03:13;;;;;;;7.45;6.75;;;;;;;14.79;100;96335;;;;
2019/09/12 00:04:14;;;;;;;7.45;6.75;;;;;;;14.79;100;96335;;;;
2019/09/12 00:05:16;;;;;;;7.45;6.75;;;;;;;14.79;100;96335;;;;
2019/09/12 00:06:17;;;;;;;8.099998;7.299999;;;;;;;14.8;100;96341.17;;;;
2019/09/12 00:07:18;;;;;;;8.099998;7.299999;;;;;;;14.8;100;96341.17;;;;
2019/09/12 00:08:19;;;;;;;7.5;6.599999;;;;;;;14.83;100;96343.52;;;;
2019/09/12 00:09:20;;;;;;;7.5;6.599999;;;;;;;14.83;100;96343.52;;;;
2019/09/12 00:10:22;;;;;;;7.5;6.599999;;;;;;;14.83;100;96343.52;;;;
2019/09/12 00:11:24;;;;;;;7.199999;6.400001;;;;;;;14.83;100;96338.08;;;;
2019/09/12 00:12:25;;;;;;;7.199999;6.400001;;;;;;;14.83;100;96338.08;;;;
2019/09/12 00:13:26;;;;;;;7.199999;6.400001;;;;;;;14.83;100;96338.08;;;;
2019/09/12 00:14:27;;;;;;;7.05;6.35;;;;;;;14.84;100;96337.45;;;;
2019/09/12 00:15:28;;;;;;;7.05;6.35;;;;;;;14.84;100;96337.45;;;;
2019/09/12 00:16:31;;;;;;;7;6.3;;;;;;;14.85;100;96338.67;;;;
2019/09/12 00:17:33;;;;;;;7;6.3;;;;;;;14.85;100;96338.67;;;;
2019/09/12 00:18:34;;;;;;;7;6.3;;;;;;;14.85;100;96338.67;;;;
2019/09/12 00:19:35;;;;;;;6.900001;6.1;;;;;;;14.85;99.7998;96341.39;;;;
2019/09/12 00:20:37;;;;;;;6.900001;6.1;;;;;;;14.85;99.7998;96341.39;;;;
2019/09/12 00:21:38;;;;;;;7.4;6.15;;;;;;;14.84;99.5957;96341.91;;;;
2019/09/12 00:22:39;;;;;;;7.4;6.15;;;;;;;14.84;99.5957;96341.91;;;;
2019/09/12 00:23:40;;;;;;;7.4;6.15;;;;;;;14.84;99.5957;96341.91;;;;
2019/09/12 00:24:41;;;;;;;7;6.400001;;;;;;;14.84;99.26172;96345.61;;;;
2019/09/12 00:25:42;;;;;;;7;6.400001;;;;;;;14.84;99.26172;96345.61;;;;
2019/09/12 00:26:46;;;;;;;6.550002;5.85;;;;;;;14.84;99.16504;96342.88;;;;
2019/09/12 00:27:47;;;;;;;6.550002;5.85;;;;;;;14.84;99.16504;96342.88;;;;
2019/09/12 00:28:48;;;;;;;6.550002;5.85;;;;;;;14.84;99.16504;96342.88;;;;
2019/09/12 00:29:49;;;;;;;6.100001;5.55;;;;;;;14.83;98.875;96345.71;;;;
2019/09/12 00:30:51;;;;;;;6.100001;5.55;;;;;;;14.83;98.875;96345.71;;;;
2019/09/12 00:31:52;;;;;;;6.100001;5.55;;;;;;;14.83;98.875;96345.71;;;;
2019/09/12 00:32:53;;;;;;;6.05;5.400001;;;;;;;14.83;98.53223;96349.38;;;;
2019/09/12 00:33:54;;;;;;;6.05;5.400001;;;;;;;14.83;98.53223;96349.38;;;;
2019/09/12 00:34:56;;;;;;;5.799999;5.299999;;;;;;;14.82;98.15234;96348.67;;;;
2019/09/12 00:35:57;;;;;;;5.799999;5.299999;;;;;;;14.82;98.15234;96348.67;;;;
2019/09/12 00:36:58;;;;;;;5.799999;5.299999;;;;;;;14.82;98.15234;96348.67;;;;
2019/09/12 00:37:59;;;;;;;6.6;5.199999;;;;;;;14.81;97.96777;96343.75;;;;
2019/09/12 00:39:01;;;;;;;6.6;5.199999;;;;;;;14.81;97.96777;96343.75;;;;
2019/09/12 00:40:03;;;;;;;5.5;5;;;;;;;14.81;97.7959;96345.11;;;;
2019/09/12 00:41:04;;;;;;;5.5;5;;;;;;;14.81;97.7959;96345.11;;;;
2019/09/12 00:42:05;;;;;;;5.5;5;;;;;;;14.81;97.7959;96345.11;;;;
2019/09/12 00:43:07;;;;;;;5.649999;5.149999;;;;;;;14.81;97.46387;96341.56;;;;
2019/09/12 00:44:08;;;;;;;5.649999;5.149999;;;;;;;14.81;97.46387;96341.56;;;;
2019/09/12 00:45:09;;;;;;;5.649999;5.149999;;;;;;;14.81;97.46387;96341.56;;;;
2019/09/12 00:46:12;;;;;;;5.5;5;;;;;;;14.81;97.15234;96351.49;;;;
2019/09/12 00:47:13;;;;;;;5.5;5;;;;;;;14.81;97.15234;96351.49;;;;
2019/09/12 00:48:14;;;;;;;5.55;5.05;;;;;;;14.81;96.87305;96348.77;;;;
2019/09/12 00:49:15;;;;;;;5.55;5.05;;;;;;;14.81;96.87305;96348.77;;;;
2019/09/12 00:50:16;;;;;;;5.55;5.05;;;;;;;14.81;96.87305;96348.77;;;;
2019/09/12 00:51:18;;;;;;;5.599999;5;;;;;;;14.81;96.5625;96357.35;;;;
2019/09/12 00:52:20;;;;;;;5.599999;5;;;;;;;14.81;96.5625;96357.35;;;;
2019/09/12 00:53:21;;;;;;;5.75;5;;;;;;;14.8;96.40137;96359.78;;;;
2019/09/12 00:54:22;;;;;;;5.75;5;;;;;;;14.8;96.40137;96359.78;;;;
2019/09/12 00:55:23;;;;;;;5.75;5;;;;;;;14.8;96.40137;96359.78;;;;
2019/09/12 00:56:25;;;;;;;5.3;4.8;;;;;;;14.8;96.48535;96357.59;;;;
2019/09/12 00:57:26;;;;;;;5.3;4.8;;;;;;;14.8;96.48535;96357.59;;;;
2019/09/12 00:58:27;;;;;;;6.05;5.1;;;;;;;14.8;96.38867;96364.39;;;;
2019/09/12 00:59:29;;;;;;;6.05;5.1;;;;;;;14.8;96.38867;96364.39;;;;
2019/09/12 01:00:30;;;;;;;6.05;5.1;;;;;;;14.8;96.38867;96364.39;;;;
2019/09/12 01:01:32;;;;;;;6.95;5.45;;;;;;;14.79;96.22559;96366.69;;;;
2019/09/12 01:02:33;;;;;;;6.95;5.45;;;;;;;14.79;96.22559;96366.69;;;;
2019/09/12 01:03:35;;;;;;;6.95;5.45;;;;;;;14.79;96.22559;96366.69;;;;
2019/09/12 01:04:36;;;;;;;5.7;5.199999;;;;;;;14.79;96.18262;96366.27;;;;
2019/09/12 01:05:37;;;;;;;5.7;5.199999;;;;;;;14.79;96.18262;96366.27;;;;
2019/09/12 01:06:40;;;;;;;6.35;5.149999;;;;;;;14.79;96.17188;96372.13;;;;
2019/09/12 01:07:41;;;;;;;6.35;5.149999;;;;;;;14.79;96.17188;96372.13;;;;
2019/09/12 01:08:42;;;;;;;6.35;5.149999;;;;;;;14.79;96.17188;96372.13;;;;
2019/09/12 01:09:44;;;;;;;5.7;5.149999;;;;;;;14.79;96.11816;96372.27;;;;
2019/09/12 01:10:45;;;;;;;5.7;5.149999;;;;;;;14.79;96.11816;96372.27;;;;
2019/09/12 01:11:46;;;;;;;6.899999;5;;;;;;;14.78;96.12891;96373.21;;;;
2019/09/12 01:12:48;;;;;;;6.899999;5;;;;;;;14.78;96.12891;96373.21;;;;
2019/09/12 01:13:50;;;;;;;6.899999;5;;;;;;;14.78;96.12891;96373.21;;;;
2019/09/12 01:14:51;;;;;;;6.5;5;;;;;;;14.77;96.02832;96371.53;;;;
2019/09/12 01:15:52;;;;;;;6.5;5;;;;;;;14.77;96.02832;96371.53;;;;
2019/09/12 01:16:53;;;;;;;6.05;5.450001;;;;;;;14.77;96.125;96370.73;;;;
2019/09/12 01:17:55;;;;;;;6.05;5.450001;;;;;;;14.77;96.125;96370.73;;;;
2019/09/12 01:18:56;;;;;;;6.05;5.450001;;;;;;;14.77;96.125;96370.73;;;;
2019/09/12 01:19:57;;;;;;;6.75;5.7;;;;;;;14.76;96.3291;96369.47;;;;
2019/09/12 01:20:58;;;;;;;6.75;5.7;;;;;;;14.76;96.3291;96369.47;;;;
2019/09/12 01:22:00;;;;;;;6.75;5.7;;;;;;;14.76;96.3291;96369.47;;;;
2019/09/12 01:23:01;;;;;;;6.25;5.6;;;;;;;14.76;96.55371;96373.55;;;;
2019/09/12 01:24:02;;;;;;;6.25;5.6;;;;;;;14.76;96.55371;96373.55;;;;
2019/09/12 01:25:03;;;;;;;6.349999;5.75;;;;;;;14.76;96.66113;96376.26;;;;
2019/09/12 01:26:05;;;;;;;6.349999;5.75;;;;;;;14.76;96.66113;96376.26;;;;
2019/09/12 01:27:07;;;;;;;6.349999;5.75;;;;;;;14.76;96.66113;96376.26;;;;
2019/09/12 01:28:08;;;;;;;6.8;5.8;;;;;;;14.76;96.6377;96372.71;;;;
2019/09/12 01:29:09;;;;;;;6.8;5.8;;;;;;;14.76;96.6377;96372.71;;;;
2019/09/12 01:30:10;;;;;;;6.249999;5.65;;;;;;;14.76;96.73438;96381.28;;;;
2019/09/12 01:31:12;;;;;;;6.249999;5.65;;;;;;;14.76;96.73438;96381.28;;;;
2019/09/12 01:32:13;;;;;;;6.249999;5.65;;;;;;;14.76;96.73438;96381.28;;;;
2019/09/12 01:33:15;;;;;;;6.75;5.65;;;;;;;14.76;96.84375;96376.26;;;;
2019/09/12 01:34:16;;;;;;;6.75;5.65;;;;;;;14.76;96.84375;96376.26;;;;
2019/09/12 01:35:17;;;;;;;6.75;5.65;;;;;;;14.76;96.84375;96376.26;;;;
2019/09/12 01:36:19;;;;;;;6.950001;5.9;;;;;;;14.76;96.9707;96375.84;;;;
2019/09/12 01:37:20;;;;;;;6.950001;5.9;;;;;;;14.76;96.9707;96375.84;;;;
2019/09/12 01:38:22;;;;;;;6.65;6;;;;;;;14.76;96.9707;96377.21;;;;
2019/09/12 01:39:23;;;;;;;6.65;6;;;;;;;14.76;96.9707;96377.21;;;;
2019/09/12 01:40:25;;;;;;;6.65;6;;;;;;;14.76;96.9707;96377.21;;;;
2019/09/12 01:41:27;;;;;;;6.35;5.750001;;;;;;;14.76;96.95117;96373.55;;;;
2019/09/12 01:42:29;;;;;;;6.35;5.750001;;;;;;;14.76;96.95117;96373.55;;;;
2019/09/12 01:43:30;;;;;;;6.95;5.849999;;;;;;;14.77;97.10156;96377.11;;;;
2019/09/12 01:44:31;;;;;;;6.95;5.849999;;;;;;;14.77;97.10156;96377.11;;;;
2019/09/12 01:45:32;;;;;;;6.95;5.849999;;;;;;;14.77;97.10156;96377.11;;;;
2019/09/12 01:46:37;;;;;;;6.149999;5.600001;;;;;;;14.76;97.28125;96379.92;;;;
2019/09/12 01:47:38;;;;;;;6.149999;5.600001;;;;;;;14.76;97.28125;96379.92;;;;
2019/09/12 01:48:39;;;;;;;6.349999;5.75;;;;;;;14.76;97.22754;96383.59;;;;
2019/09/12 01:49:40;;;;;;;6.349999;5.75;;;;;;;14.76;97.22754;96383.59;;;;
2019/09/12 01:50:41;;;;;;;6.349999;5.75;;;;;;;14.76;97.22754;96383.59;;;;
2019/09/12 01:51:42;;;;;;;6.15;5.65;;;;;;;14.76;97.3584;96384.42;;;;
2019/09/12 01:52:43;;;;;;;6.15;5.65;;;;;;;14.76;97.3584;96384.42;;;;
2019/09/12 01:53:45;;;;;;;6.15;5.65;;;;;;;14.76;97.3584;96384.42;;;;
2019/09/12 01:54:46;;;;;;;8.1;5.55;;;;;;;14.77;97.34766;96391.12;;;;
2019/09/12 01:55:47;;;;;;;8.1;5.55;;;;;;;14.77;97.34766;96391.12;;;;
2019/09/12 01:56:49;;;;;;;6.4;5.749999;;;;;;;14.77;97.42285;96387.04;;;;
2019/09/12 01:57:50;;;;;;;6.4;5.749999;;;;;;;14.77;97.42285;96387.04;;;;
2019/09/12 01:58:51;;;;;;;6.4;5.749999;;;;;;;14.77;97.42285;96387.04;;;;
2019/09/12 01:59:52;;;;;;;8.200001;5.5;;;;;;;14.78;97.44922;96390.45;;;;
2019/09/12 02:00:53;;;;;;;8.200001;5.5;;;;;;;14.78;97.44922;96390.45;;;;
2019/09/12 02:01:55;;;;;;;6.7;5.550001;;;;;;;14.79;97.56738;96393.87;;;;
2019/09/12 02:02:56;;;;;;;6.7;5.550001;;;;;;;14.79;97.56738;96393.87;;;;
2019/09/12 02:03:57;;;;;;;6.7;5.550001;;;;;;;14.79;97.56738;96393.87;;;;
2019/09/12 02:04:59;;;;;;;6.45;5.3;;;;;;;14.81;97.60352;96394.06;;;;
2019/09/12 02:06:00;;;;;;;6.45;5.3;;;;;;;14.81;97.60352;96394.06;;;;
2019/09/12 02:07:02;;;;;;;6.45;5.3;;;;;;;14.81;97.60352;96394.06;;;;
2019/09/12 02:08:03;;;;;;;5.649999;5.1;;;;;;;14.83;97.37109;96392.46;;;;
2019/09/12 02:09:06;;;;;;;5.649999;5.1;;;;;;;14.83;97.37109;96392.46;;;;
2019/09/12 02:10:07;;;;;;;5.649999;5.1;;;;;;;14.83;97.37109;96392.46;;;;
2019/09/12 02:11:11;;;;;;;5.649999;5.1;;;;;;;14.83;97.37109;96392.46;;;;
2019/09/12 02:12:13;;;;;;;5.649999;5.1;;;;;;;14.83;97.37109;96392.46;;;;
2019/09/12 02:13:14;;;;;;;5.400001;4.900001;;;;;;;14.91;96.63867;96391.6;;;;
2019/09/12 02:14:15;;;;;;;5.400001;4.900001;;;;;;;14.91;96.63867;96391.6;;;;
2019/09/12 02:15:16;;;;;;;5.5;5;;;;;;;14.95;96.10938;96398.21;;;;
2019/09/12 02:16:20;;;;;;;5.5;5;;;;;;;14.95;96.10938;96398.21;;;;
2019/09/12 02:17:21;;;;;;;5.5;5;;;;;;;14.95;96.10938;96398.21;;;;
2019/09/12 02:18:23;;;;;;;5.7;4.95;;;;;;;14.94;95.99219;96392.9;;;;
2019/09/12 02:19:24;;;;;;;5.7;4.95;;;;;;;14.94;95.99219;96392.9;;;;
2019/09/12 02:20:25;;;;;;;5.7;4.95;;;;;;;14.94;95.99219;96392.9;;;;
2019/09/12 02:21:33;;;;;;;6.1;4.649999;;;;;;;14.93;95.92285;96394.89;;;;
2019/09/12 02:22:34;;;;;;;6.1;4.649999;;;;;;;14.93;95.92285;96394.89;;;;
2019/09/12 02:23:35;;;;;;;5.599999;5;;;;;;;14.93;95.7832;96392.72;;;;
2019/09/12 02:24:36;;;;;;;5.599999;5;;;;;;;14.93;95.7832;96392.72;;;;
2019/09/12 02:25:38;;;;;;;5.599999;5;;;;;;;14.93;95.7832;96392.72;;;;
2019/09/12 02:26:40;;;;;;;5.599999;5;;;;;;;14.93;95.7832;96392.72;;;;
2019/09/12 02:27:41;;;;;;;5.599999;5;;;;;;;14.93;95.7832;96392.72;;;;
2019/09/12 02:28:42;;;;;;;5.599999;5;;;;;;;14.93;95.7832;96392.72;;;;
2019/09/12 02:29:43;;;;;;;5.599999;5;;;;;;;14.93;95.7832;96392.72;;;;
2019/09/12 02:30:44;;;;;;;5.599999;5;;;;;;;14.93;95.7832;96392.72;;;;
2019/09/12 02:31:46;;;;;;;5.599999;5;;;;;;;14.93;95.7832;96392.72;;;;
2019/09/12 02:32:47;;;;;;;5.599999;5;;;;;;;14.93;95.7832;96392.72;;;;
2019/09/12 02:33:49;;;;;;;6.100001;5.1;;;;;;;14.62;95.39648;96404.19;;;;
2019/09/12 02:34:50;;;;;;;6.100001;5.1;;;;;;;14.62;95.39648;96404.19;;;;
2019/09/12 02:35:51;;;;;;;6.100001;5.1;;;;;;;14.62;95.39648;96404.19;;;;
2019/09/12 02:36:52;;;;;;;5.7;4.849999;;;;;;;14.62;96.07031;96400.66;;;;
2019/09/12 02:37:53;;;;;;;5.7;4.849999;;;;;;;14.62;96.07031;96400.66;;;;
2019/09/12 02:38:54;;;;;;;5.7;4.849999;;;;;;;14.62;96.07031;96400.66;;;;
2019/09/12 02:39:56;;;;;;;5.7;4.849999;;;;;;;14.62;96.07031;96400.66;;;;
2019/09/12 02:40:57;;;;;;;5.7;4.849999;;;;;;;14.62;96.07031;96400.66;;;;
2019/09/12 02:41:58;;;;;;;5.7;4.849999;;;;;;;14.62;96.07031;96400.66;;;;
2019/09/12 02:42:59;;;;;;;5.7;4.849999;;;;;;;14.62;96.07031;96400.66;;;;
2019/09/12 02:44:00;;;;;;;5.7;4.849999;;;;;;;14.62;96.07031;96400.66;;;;
2019/09/12 02:45:01;;;;;;;5.7;4.849999;;;;;;;14.62;96.07031;96400.66;;;;
2019/09/12 02:46:04;;;;;;;5.7;4.849999;;;;;;;14.62;96.07031;96400.66;;;;
2019/09/12 02:47:05;;;;;;;5.8;4.900001;;;;;;;14.46;95.55273;96405;;;;
2019/09/12 02:48:06;;;;;;;5.8;4.900001;;;;;;;14.46;95.55273;96405;;;;
2019/09/12 02:49:08;;;;;;;5.8;4.900001;;;;;;;14.46;95.55273;96405;;;;
2019/09/12 02:50:09;;;;;;;5.65;5.05;;;;;;;14.48;96.30957;96398.67;;;;
2019/09/12 02:51:11;;;;;;;5.65;5.05;;;;;;;14.48;96.30957;96398.67;;;;
2019/09/12 02:52:12;;;;;;;5.65;5.05;;;;;;;14.48;96.30957;96398.67;;;;
2019/09/12 02:53:14;;;;;;;5.65;5.05;;;;;;;14.48;96.30957;96398.67;;;;
2019/09/12 02:54:15;;;;;;;5.65;5.05;;;;;;;14.48;96.30957;96398.67;;;;
2019/09/12 02:55:16;;;;;;;5.65;5.05;;;;;;;14.48;96.30957;96398.67;;;;
2019/09/12 02:56:19;;;;;;;5.65;5.05;;;;;;;14.48;96.30957;96398.67;;;;
2019/09/12 02:57:20;;;;;;;5.65;5.05;;;;;;;14.48;96.30957;96398.67;;;;
2019/09/12 02:58:21;;;;;;;5.65;5.05;;;;;;;14.48;96.30957;96398.67;;;;
2019/09/12 02:59:23;;;;;;;5.65;5.05;;;;;;;14.48;96.30957;96398.67;;;;
2019/09/12 03:00:24;;;;;;;5.9;5.200001;;;;;;;14.39;95.64844;96416.37;;;;
2019/09/12 03:01:25;;;;;;;5.9;5.200001;;;;;;;14.39;95.64844;96416.37;;;;
2019/09/12 03:02:27;;;;;;;5.9;5.200001;;;;;;;14.39;95.64844;96416.37;;;;
2019/09/12 03:03:28;;;;;;;5.35;4.85;;;;;;;14.42;96.39258;96410.49;;;;
2019/09/12 03:04:29;;;;;;;5.35;4.85;;;;;;;14.42;96.39258;96410.49;;;;
2019/09/12 03:05:30;;;;;;;5.7;5.2;;;;;;;14.5;96.72168;96411.5;;;;
2019/09/12 03:06:32;;;;;;;5.7;5.2;;;;;;;14.5;96.72168;96411.5;;;;
2019/09/12 03:07:33;;;;;;;5.7;5.2;;;;;;;14.5;96.72168;96411.5;;;;
2019/09/12 03:08:34;;;;;;;6.7;5.4;;;;;;;14.57;96.94238;96412.22;;;;
2019/09/12 03:09:35;;;;;;;6.7;5.4;;;;;;;14.57;96.94238;96412.22;;;;
2019/09/12 03:10:36;;;;;;;6.7;5.4;;;;;;;14.57;96.94238;96412.22;;;;
2019/09/12 03:11:40;;;;;;;5.95;5.050001;;;;;;;14.63;97.00586;96414.53;;;;
2019/09/12 03:12:41;;;;;;;5.95;5.050001;;;;;;;14.63;97.00586;96414.53;;;;
2019/09/12 03:13:42;;;;;;;6.000001;5.4;;;;;;;14.68;97.10449;96410.06;;;;
2019/09/12 03:14:44;;;;;;;6.000001;5.4;;;;;;;14.68;97.10449;96410.06;;;;
2019/09/12 03:15:45;;;;;;;6.000001;5.4;;;;;;;14.68;97.10449;96410.06;;;;
2019/09/12 03:16:46;;;;;;;6.000001;5.4;;;;;;;14.68;97.10449;96410.06;;;;
2019/09/12 03:17:48;;;;;;;6.000001;5.4;;;;;;;14.68;97.10449;96410.06;;;;
2019/09/12 03:18:49;;;;;;;6.000001;5.4;;;;;;;14.68;97.10449;96410.06;;;;
2019/09/12 03:19:50;;;;;;;6.000001;5.4;;;;;;;14.68;97.10449;96410.06;;;;
2019/09/12 03:20:51;;;;;;;6.000001;5.4;;;;;;;14.68;97.10449;96410.06;;;;
2019/09/12 03:21:53;;;;;;;6.000001;5.4;;;;;;;14.68;97.10449;96410.06;;;;
2019/09/12 03:22:54;;;;;;;6.000001;5.4;;;;;;;14.68;97.10449;96410.06;;;;
2019/09/12 03:23:55;;;;;;;6.000001;5.4;;;;;;;14.68;97.10449;96410.06;;;;
2019/09/12 03:24:56;;;;;;;5.750001;5.15;;;;;;;14.5;96.25;96427.81;;;;
2019/09/12 03:25:57;;;;;;;5.750001;5.15;;;;;;;14.5;96.25;96427.81;;;;
2019/09/12 03:26:58;;;;;;;5.699999;5.199999;;;;;;;14.52;97.01367;96424.43;;;;
2019/09/12 03:27:59;;;;;;;5.699999;5.199999;;;;;;;14.52;97.01367;96424.43;;;;
2019/09/12 03:29:01;;;;;;;5.699999;5.199999;;;;;;;14.52;97.01367;96424.43;;;;
2019/09/12 03:30:02;;;;;;;5.699999;5.199999;;;;;;;14.52;97.01367;96424.43;;;;
2019/09/12 03:31:04;;;;;;;5.699999;5.199999;;;;;;;14.52;97.01367;96424.43;;;;
2019/09/12 03:32:07;;;;;;;5.699999;5.199999;;;;;;;14.52;97.01367;96424.43;;;;
2019/09/12 03:33:08;;;;;;;5.699999;5.199999;;;;;;;14.52;97.01367;96424.43;;;;
2019/09/12 03:34:09;;;;;;;5.699999;5.199999;;;;;;;14.52;97.01367;96424.43;;;;
2019/09/12 03:35:11;;;;;;;5.699999;5.199999;;;;;;;14.52;97.01367;96424.43;;;;
2019/09/12 03:36:12;;;;;;;5.699999;5.199999;;;;;;;14.52;97.01367;96424.43;;;;
2019/09/12 03:37:13;;;;;;;5.9;4.799999;;;;;;;14.43;96.43555;96413.59;;;;
2019/09/12 03:38:14;;;;;;;5.9;4.799999;;;;;;;14.43;96.43555;96413.59;;;;
2019/09/12 03:39:16;;;;;;;5.9;4.799999;;;;;;;14.43;96.43555;96413.59;;;;
2019/09/12 03:40:17;;;;;;;5.95;5.15;;;;;;;14.46;97.13184;96411.66;;;;
2019/09/12 03:41:26;;;;;;;5.95;5.15;;;;;;;14.46;97.13184;96411.66;;;;
2019/09/12 03:42:27;;;;;;;5.95;5.15;;;;;;;14.46;97.13184;96411.66;;;;
2019/09/12 03:43:28;;;;;;;5.95;5.15;;;;;;;14.46;97.13184;96411.66;;;;
2019/09/12 03:44:29;;;;;;;5.95;5.15;;;;;;;14.46;97.13184;96411.66;;;;
2019/09/12 03:45:30;;;;;;;5.95;5.15;;;;;;;14.46;97.13184;96411.66;;;;
2019/09/12 03:46:34;;;;;;;5.95;5.15;;;;;;;14.46;97.13184;96411.66;;;;
2019/09/12 03:47:35;;;;;;;5.95;5.15;;;;;;;14.46;97.13184;96411.66;;;;
2019/09/12 03:48:36;;;;;;;5.95;5.15;;;;;;;14.46;97.13184;96411.66;;;;
2019/09/12 03:49:37;;;;;;;5.95;5.15;;;;;;;14.46;97.13184;96411.66;;;;
2019/09/12 03:50:38;;;;;;;5.499999;4.849999;;;;;;;14.39;96.41797;96414.59;;;;
2019/09/12 03:51:40;;;;;;;5.499999;4.849999;;;;;;;14.39;96.41797;96414.59;;;;
2019/09/12 03:52:42;;;;;;;5.499999;4.849999;;;;;;;14.39;96.41797;96414.59;;;;
2019/09/12 03:53:43;;;;;;;5.85;5.25;;;;;;;14.43;97.20703;96421.74;;;;
2019/09/12 03:54:44;;;;;;;5.85;5.25;;;;;;;14.43;97.20703;96421.74;;;;
2019/09/12 03:55:45;;;;;;;5.85;5.25;;;;;;;14.43;97.20703;96421.74;;;;
2019/09/12 03:56:50;;;;;;;5.85;5.25;;;;;;;14.43;97.20703;96421.74;;;;
2019/09/12 03:57:51;;;;;;;5.85;5.25;;;;;;;14.43;97.20703;96421.74;;;;
2019/09/12 03:58:52;;;;;;;5.85;5.25;;;;;;;14.43;97.20703;96421.74;;;;
2019/09/12 03:59:53;;;;;;;5.85;5.25;;;;;;;14.43;97.20703;96421.74;;;;
2019/09/12 04:00:54;;;;;;;5.85;5.25;;;;;;;14.43;97.20703;96421.74;;;;
2019/09/12 04:01:56;;;;;;;5.85;5.25;;;;;;;14.43;97.20703;96421.74;;;;
2019/09/12 04:02:57;;;;;;;5.85;5.25;;;;;;;14.43;97.20703;96421.74;;;;
2019/09/12 04:03:58;;;;;;;6.55;5.2;;;;;;;14.36;96.58105;96436.38;;;;
2019/09/12 04:04:59;;;;;;;6.55;5.2;;;;;;;14.36;96.58105;96436.38;;;;
2019/09/12 04:06:01;;;;;;;6.55;5.2;;;;;;;14.36;96.58105;96436.38;;;;
2019/09/12 04:07:02;;;;;;;6.250001;5.299999;;;;;;;14.4;97.57813;96433.92;;;;
2019/09/12 04:08:03;;;;;;;6.250001;5.299999;;;;;;;14.4;97.57813;96433.92;;;;
2019/09/12 04:09:06;;;;;;;6.250001;5.299999;;;;;;;14.4;97.57813;96433.92;;;;
2019/09/12 04:10:08;;;;;;;6.250001;5.299999;;;;;;;14.4;97.57813;96433.92;;;;
2019/09/12 04:11:10;;;;;;;6.250001;5.299999;;;;;;;14.4;97.57813;96433.92;;;;
2019/09/12 04:12:11;;;;;;;6.250001;5.299999;;;;;;;14.4;97.57813;96433.92;;;;
2019/09/12 04:13:12;;;;;;;6.250001;5.299999;;;;;;;14.4;97.57813;96433.92;;;;
2019/09/12 04:14:13;;;;;;;6.250001;5.299999;;;;;;;14.4;97.57813;96433.92;;;;
2019/09/12 04:15:14;;;;;;;6.250001;5.299999;;;;;;;14.4;97.57813;96433.92;;;;
2019/09/12 04:16:16;;;;;;;6.250001;5.299999;;;;;;;14.4;97.57813;96433.92;;;;
2019/09/12 04:17:17;;;;;;;6.249999;5.65;;;;;;;14.38;96.94141;96443.77;;;;
2019/09/12 04:18:18;;;;;;;6.249999;5.65;;;;;;;14.38;96.94141;96443.77;;;;
2019/09/12 04:19:20;;;;;;;6.249999;5.65;;;;;;;14.38;96.94141;96443.77;;;;
2019/09/12 04:20:21;;;;;;;6.400001;5.799999;;;;;;;14.42;98.05371;96449.89;;;;
2019/09/12 04:21:24;;;;;;;6.400001;5.799999;;;;;;;14.42;98.05371;96449.89;;;;
2019/09/12 04:22:25;;;;;;;6.400001;5.799999;;;;;;;14.42;98.05371;96449.89;;;;
2019/09/12 04:23:27;;;;;;;6.400001;5.799999;;;;;;;14.42;98.05371;96449.89;;;;
2019/09/12 04:24:28;;;;;;;6.400001;5.799999;;;;;;;14.42;98.05371;96449.89;;;;
2019/09/12 04:25:29;;;;;;;6.400001;5.799999;;;;;;;14.42;98.05371;96449.89;;;;
2019/09/12 04:26:30;;;;;;;6.400001;5.799999;;;;;;;14.42;98.05371;96449.89;;;;
2019/09/12 04:27:32;;;;;;;6.400001;5.799999;;;;;;;14.42;98.05371;96449.89;;;;
2019/09/12 04:28:33;;;;;;;6.400001;5.799999;;;;;;;14.42;98.05371;96449.89;;;;
2019/09/12 04:29:34;;;;;;;6.400001;5.799999;;;;;;;14.42;98.05371;96449.89;;;;
2019/09/12 04:30:35;;;;;;;6.900001;6.199999;;;;;;;14.4;97.33203;96461.1;;;;
2019/09/12 04:31:38;;;;;;;6.900001;6.199999;;;;;;;14.4;97.33203;96461.1;;;;
2019/09/12 04:32:39;;;;;;;6.900001;6.199999;;;;;;;14.4;97.33203;96461.1;;;;
2019/09/12 04:33:40;;;;;;;7.600001;6.099999;;;;;;;14.45;98.51074;96463.94;;;;
2019/09/12 04:34:41;;;;;;;7.600001;6.099999;;;;;;;14.45;98.51074;96463.94;;;;
2019/09/12 04:35:42;;;;;;;6.600001;6;;;;;;;14.55;99.20898;96470.19;;;;
2019/09/12 04:36:44;;;;;;;6.600001;6;;;;;;;14.55;99.20898;96470.19;;;;
2019/09/12 04:37:45;;;;;;;6.600001;6;;;;;;;14.55;99.20898;96470.19;;;;
2019/09/12 04:38:46;;;;;;;6.600001;6;;;;;;;14.55;99.20898;96470.19;;;;
2019/09/12 04:39:47;;;;;;;6.600001;6;;;;;;;14.55;99.20898;96470.19;;;;
2019/09/12 04:40:48;;;;;;;6.600001;6;;;;;;;14.55;99.20898;96470.19;;;;
2019/09/12 04:41:50;;;;;;;6.600001;6;;;;;;;14.55;99.20898;96470.19;;;;
2019/09/12 04:42:51;;;;;;;6.600001;6;;;;;;;14.55;99.20898;96470.19;;;;
2019/09/12 04:43:52;;;;;;;6.600001;6;;;;;;;14.55;99.20898;96470.19;;;;
2019/09/12 04:44:53;;;;;;;6.600001;6;;;;;;;14.55;99.20898;96470.19;;;;
2019/09/12 04:45:54;;;;;;;6.600001;6;;;;;;;14.55;99.20898;96470.19;;;;
2019/09/12 04:47:00;;;;;;;6.450001;5.85;;;;;;;14.54;98.36035;96475.73;;;;
2019/09/12 04:48:02;;;;;;;6.450001;5.85;;;;;;;14.54;98.36035;96475.73;;;;
2019/09/12 04:49:03;;;;;;;6.450001;5.85;;;;;;;14.54;98.36035;96475.73;;;;
2019/09/12 04:50:04;;;;;;;6.450001;5.85;;;;;;;14.54;98.36035;96475.73;;;;
2019/09/12 04:51:07;;;;;;;6.450001;5.85;;;;;;;14.54;98.36035;96475.73;;;;
2019/09/12 04:52:09;;;;;;;6.450001;5.85;;;;;;;14.54;98.36035;96475.73;;;;
2019/09/12 04:53:10;;;;;;;6.450001;5.85;;;;;;;14.54;98.36035;96475.73;;;;
2019/09/12 04:54:11;;;;;;;6.450001;5.85;;;;;;;14.54;98.36035;96475.73;;;;
2019/09/12 04:55:12;;;;;;;6.450001;5.85;;;;;;;14.54;98.36035;96475.73;;;;
2019/09/12 04:56:14;;;;;;;6.450001;5.85;;;;;;;14.54;98.36035;96475.73;;;;
2019/09/12 04:57:15;;;;;;;6.6;6;;;;;;;14.47;98.26855;96477.29;;;;
2019/09/12 04:58:16;;;;;;;6.6;6;;;;;;;14.47;98.26855;96477.29;;;;
2019/09/12 04:59:19;;;;;;;7.05;6.400001;;;;;;;14.52;99.41699;96475.55;;;;
2019/09/12 05:00:20;;;;;;;7.05;6.400001;;;;;;;14.52;99.41699;96475.55;;;;
2019/09/12 05:01:21;;;;;;;7.05;6.400001;;;;;;;14.52;99.41699;96475.55;;;;
2019/09/12 05:02:23;;;;;;;7.05;6.400001;;;;;;;14.52;99.41699;96475.55;;;;
2019/09/12 05:03:24;;;;;;;7.05;6.400001;;;;;;;14.52;99.41699;96475.55;;;;
2019/09/12 05:04:25;;;;;;;7.05;6.400001;;;;;;;14.52;99.41699;96475.55;;;;
2019/09/12 05:05:26;;;;;;;7.05;6.400001;;;;;;;14.52;99.41699;96475.55;;;;
2019/09/12 05:06:28;;;;;;;7.05;6.400001;;;;;;;14.52;99.41699;96475.55;;;;
2019/09/12 05:07:29;;;;;;;7.05;6.400001;;;;;;;14.52;99.41699;96475.55;;;;
2019/09/12 05:08:30;;;;;;;7.05;6.400001;;;;;;;14.52;99.41699;96475.55;;;;
2019/09/12 05:09:31;;;;;;;7.05;6.400001;;;;;;;14.52;99.41699;96475.55;;;;
2019/09/12 05:10:33;;;;;;;7.1;6.3;;;;;;;14.52;98.76074;96470.63;;;;
2019/09/12 05:11:34;;;;;;;7.1;6.3;;;;;;;14.52;98.76074;96470.63;;;;
2019/09/12 05:12:36;;;;;;;7.1;6.3;;;;;;;14.52;98.76074;96470.63;;;;
2019/09/12 05:13:37;;;;;;;7.1;6.3;;;;;;;14.52;98.76074;96470.63;;;;
2019/09/12 05:14:38;;;;;;;7.1;6.3;;;;;;;14.52;98.76074;96470.63;;;;
2019/09/12 05:15:39;;;;;;;7.1;6.3;;;;;;;14.52;98.76074;96470.63;;;;
2019/09/12 05:16:41;;;;;;;7.1;6.3;;;;;;;14.52;98.76074;96470.63;;;;
2019/09/12 05:17:42;;;;;;;7.1;6.3;;;;;;;14.52;98.76074;96470.63;;;;
2019/09/12 05:18:43;;;;;;;7.1;6.3;;;;;;;14.52;98.76074;96470.63;;;;
2019/09/12 05:19:44;;;;;;;7.1;6.3;;;;;;;14.52;98.76074;96470.63;;;;
2019/09/12 05:20:45;;;;;;;7.499999;6.550001;;;;;;;14.46;98.60938;96482.45;;;;
2019/09/12 05:21:47;;;;;;;7.499999;6.550001;;;;;;;14.46;98.60938;96482.45;;;;
2019/09/12 05:22:48;;;;;;;7.499999;6.550001;;;;;;;14.46;98.60938;96482.45;;;;
2019/09/12 05:23:49;;;;;;;7.499999;6.550001;;;;;;;14.46;98.60938;96482.45;;;;
2019/09/12 05:24:50;;;;;;;7.499999;6.550001;;;;;;;14.46;98.60938;96482.45;;;;
2019/09/12 05:25:51;;;;;;;7.499999;6.550001;;;;;;;14.46;98.60938;96482.45;;;;
2019/09/12 05:26:53;;;;;;;7.499999;6.550001;;;;;;;14.46;98.60938;96482.45;;;;
2019/09/12 05:27:54;;;;;;;7.499999;6.550001;;;;;;;14.46;98.60938;96482.45;;;;
2019/09/12 05:28:55;;;;;;;7.499999;6.550001;;;;;;;14.46;98.60938;96482.45;;;;
2019/09/12 05:29:56;;;;;;;7.499999;6.550001;;;;;;;14.46;98.60938;96482.45;;;;
2019/09/12 05:30:57;;;;;;;7.499999;6.550001;;;;;;;14.46;98.60938;96482.45;;;;
2019/09/12 05:31:58;;;;;;;8.299999;6.75;;;;;;;14.4;98.61816;96488.26;;;;
2019/09/12 05:33:00;;;;;;;8.299999;6.75;;;;;;;14.4;98.61816;96488.26;;;;
2019/09/12 05:34:01;;;;;;;8.299999;6.75;;;;;;;14.4;98.61816;96488.26;;;;
2019/09/12 05:35:02;;;;;;;8.299999;6.75;;;;;;;14.4;98.61816;96488.26;;;;
2019/09/12 05:36:03;;;;;;;8.299999;6.75;;;;;;;14.4;98.61816;96488.26;;;;
2019/09/12 05:37:05;;;;;;;8.299999;6.75;;;;;;;14.4;98.61816;96488.26;;;;
2019/09/12 05:38:06;;;;;;;8.299999;6.75;;;;;;;14.4;98.61816;96488.26;;;;